createdAt,value
2018-12-12T00:00:48.888Z,7.40
2018-12-12T00:03:21.947Z,7.07
2018-12-12T00:05:58.458Z,8.37
2018-12-12T00:08:29.545Z,6.77
2018-12-12T00:11:02.735Z,6.37
2018-12-12T00:13:35.467Z,6.53
2018-12-12T00:16:08.535Z,6.00
2018-12-12T00:18:42.291Z,5.27
2018-12-12T00:21:19.858Z,5.73
2018-12-12T00:23:52.630Z,5.43
2018-12-12T00:26:25.574Z,6.10
2018-12-12T00:28:58.695Z,6.50
2018-12-12T00:31:31.833Z,6.97
2018-12-12T00:34:04.559Z,6.80
2018-12-12T00:36:37.850Z,7.67
2018-12-12T00:39:10.420Z,6.10
2018-12-12T00:41:47.491Z,8.27
2018-12-12T00:44:21.080Z,9.40
2018-12-12T00:46:53.730Z,6.90
2018-12-12T00:49:26.457Z,9.20
2018-12-12T00:51:59.716Z,8.87
2018-12-12T00:54:32.494Z,7.80
2018-12-12T00:57:05.733Z,9.10
2018-12-12T00:59:36.618Z,7.33
2018-12-12T01:02:09.246Z,8.63
2018-12-12T01:04:46.515Z,7.27
2018-12-12T01:07:19.943Z,7.73
2018-12-12T01:09:52.833Z,10.30
2018-12-12T01:12:25.686Z,7.43
2018-12-12T01:14:58.579Z,8.50
2018-12-12T01:17:35.898Z,8.13
2018-12-12T01:20:08.735Z,7.47
2018-12-12T01:22:41.892Z,7.60
2018-12-12T01:25:14.563Z,7.97
2018-12-12T01:27:48.583Z,8.00
2018-12-12T01:30:21.752Z,8.93
2018-12-12T01:32:56.820Z,6.43
2018-12-12T01:35:31.938Z,8.27
2018-12-12T01:38:04.663Z,7.30
2018-12-12T01:40:37.495Z,8.17
2018-12-12T01:43:14.448Z,8.00
2018-12-12T01:45:47.259Z,5.37
2018-12-12T01:48:18.225Z,8.50
2018-12-12T01:50:51.319Z,7.87
2018-12-12T01:53:24.467Z,7.90
2018-12-12T01:56:00.974Z,7.53
2018-12-12T01:58:31.775Z,7.03
2018-12-12T02:01:04.912Z,8.90
2018-12-12T02:03:38.548Z,7.23
2018-12-12T02:06:11.700Z,7.17
2018-12-12T02:08:42.651Z,7.57
2018-12-12T02:11:15.514Z,9.03
2018-12-12T02:13:48.478Z,8.27
2018-12-12T02:16:22.479Z,8.00
2018-12-12T02:18:55.099Z,7.53
2018-12-12T02:21:27.920Z,6.87
2018-12-12T02:24:00.815Z,8.20
2018-12-12T02:26:34.186Z,8.50
2018-12-12T02:29:06.459Z,9.47
2018-12-12T02:31:37.434Z,9.40
2018-12-12T02:34:13.737Z,8.57
2018-12-12T02:36:46.759Z,8.27
2018-12-12T02:59:27.060Z,8.80
2018-12-12T03:01:59.967Z,9.60
2018-12-12T03:04:36.674Z,8.90
2018-12-12T03:07:09.562Z,8.77
2018-12-12T03:09:42.512Z,9.23
2018-12-12T03:12:15.606Z,9.50
2018-12-12T03:14:52.525Z,8.47
2018-12-12T03:17:23.330Z,8.63
2018-12-12T03:19:56.313Z,8.90
2018-12-12T03:22:29.098Z,8.97
2018-12-12T03:25:02.187Z,10.20
2018-12-12T03:27:35.103Z,8.90
2018-12-12T03:30:08.269Z,8.37
2018-12-12T03:32:39.045Z,8.60
2018-12-12T03:35:11.834Z,7.80
2018-12-12T03:37:42.892Z,8.00
2018-12-12T03:40:15.130Z,8.10
2018-12-12T03:42:48.283Z,8.10
2018-12-12T03:45:21.234Z,8.83
2018-12-12T03:47:54.233Z,8.60
2018-12-12T03:50:27.390Z,11.70
2018-12-12T03:53:00.367Z,9.37
2018-12-12T03:55:33.523Z,10.50
2018-12-12T03:58:06.918Z,9.50
2018-12-12T04:20:46.446Z,8.50
2018-12-12T04:23:19.573Z,9.83
2018-12-12T04:25:56.318Z,9.03
2018-12-12T04:28:29.210Z,7.37
2018-12-12T04:30:59.933Z,7.30
2018-12-12T04:33:33.233Z,7.47
2018-12-12T04:36:06.091Z,8.80
2018-12-12T04:38:43.064Z,7.77
2018-12-12T04:41:16.186Z,5.80
2018-12-12T04:43:49.144Z,7.20
2018-12-12T04:46:25.832Z,5.97
2018-12-12T04:48:59.202Z,8.37
2018-12-12T04:51:31.752Z,6.63
2018-12-12T04:54:05.035Z,8.70
2018-12-12T04:56:41.979Z,8.30
2018-12-12T04:59:14.622Z,9.43
2018-12-12T05:01:47.291Z,7.80
2018-12-12T05:04:24.278Z,10.30
2018-12-12T05:06:57.399Z,9.50
2018-12-12T05:09:30.340Z,9.83
2018-12-12T05:12:03.380Z,8.53
2018-12-12T05:14:40.563Z,8.80
2018-12-12T05:17:12.938Z,9.07
2018-12-12T05:19:45.857Z,8.17
2018-12-12T05:22:18.763Z,9.70
2018-12-12T05:24:55.467Z,8.87
2018-12-12T05:27:28.435Z,9.83
2018-12-12T05:30:04.867Z,9.80
2018-12-12T05:32:37.695Z,9.03
2018-12-12T05:35:14.897Z,10.60
2018-12-12T05:37:51.825Z,10.60
2018-12-12T05:40:22.737Z,9.30
2018-12-12T05:42:55.131Z,9.57
2018-12-12T05:45:28.344Z,9.43
2018-12-12T05:48:01.530Z,10.60
2018-12-12T05:50:34.595Z,9.63
2018-12-12T05:53:05.815Z,9.53
2018-12-12T05:55:38.699Z,9.63
2018-12-12T05:58:09.670Z,9.70
2018-12-12T06:00:42.671Z,11.73
2018-12-12T06:03:15.676Z,9.80
2018-12-12T06:05:48.227Z,9.53
2018-12-12T06:08:21.405Z,11.40
2018-12-12T06:10:52.218Z,10.80
2018-12-12T06:13:25.424Z,10.43
2018-12-12T06:15:58.396Z,10.70
2018-12-12T06:18:30.732Z,11.33
2018-12-12T06:21:03.853Z,12.23
2018-12-12T06:23:36.651Z,13.00
2018-12-12T06:33:38.167Z,11.67
2018-12-12T06:38:42.224Z,9.60
2018-12-12T06:41:11.371Z,13.53
2018-12-12T06:43:44.062Z,12.60
2018-12-12T06:46:30.139Z,10.93
2018-12-12T06:49:02.876Z,11.27
2018-12-12T06:51:35.879Z,12.00
2018-12-12T06:54:06.979Z,13.30
2018-12-12T06:56:44.002Z,10.80
2018-12-12T06:59:17.196Z,12.77
2018-12-12T07:01:55.191Z,13.23
2018-12-12T07:04:24.251Z,11.40
2018-12-12T07:06:57.982Z,12.10
2018-12-12T07:09:40.421Z,11.60
2018-12-12T07:12:09.562Z,12.73
2018-12-12T07:14:46.491Z,11.27
2018-12-12T07:17:24.066Z,11.17
2018-12-12T07:19:53.344Z,12.83
2018-12-12T07:22:22.559Z,13.00
2018-12-12T07:24:51.692Z,13.00
2018-12-12T07:27:26.064Z,12.47
2018-12-12T07:29:55.236Z,11.83
2018-12-12T07:33:07.445Z,11.50
2018-12-12T07:35:36.659Z,12.00
2018-12-12T07:38:05.978Z,10.90
2018-12-12T07:43:07.436Z,15.03
2018-12-12T07:45:36.552Z,13.33
2018-12-12T07:48:20.327Z,13.53
2018-12-12T07:50:52.878Z,15.77
2018-12-12T07:53:21.894Z,12.80
2018-12-12T07:55:50.907Z,13.73
2018-12-12T07:58:20.073Z,12.57
2018-12-12T08:00:57.663Z,13.40
2018-12-12T08:03:26.670Z,11.47
2018-12-12T08:06:04.406Z,12.87
2018-12-12T08:08:33.436Z,11.33
2018-12-12T08:11:02.710Z,12.27
2018-12-12T08:13:31.787Z,10.70
2018-12-12T08:16:04.248Z,14.50
2018-12-12T08:18:33.363Z,13.03
2018-12-12T08:21:02.585Z,14.63
2018-12-12T08:23:31.947Z,12.70
2018-12-12T08:26:01.079Z,12.33
2018-12-12T08:28:30.162Z,11.87
2018-12-12T08:30:59.258Z,11.10
2018-12-12T08:33:28.432Z,11.33
2018-12-12T08:35:57.453Z,12.03
2018-12-12T08:38:26.598Z,12.53
2018-12-12T08:40:55.731Z,12.67
2018-12-12T08:43:24.852Z,10.57
2018-12-12T08:45:53.910Z,11.93
2018-12-12T08:48:23.068Z,13.00
2018-12-12T08:50:52.154Z,11.80
2018-12-12T08:53:21.270Z,10.50
2018-12-12T08:55:50.433Z,12.10
2018-12-12T08:58:19.572Z,11.53
2018-12-12T09:00:48.787Z,11.20
2018-12-12T09:03:17.966Z,11.73
2018-12-12T09:05:47.088Z,12.60
2018-12-12T09:08:16.162Z,12.40
2018-12-12T09:10:45.284Z,13.30
2018-12-12T09:13:15.430Z,11.83
2018-12-12T09:15:44.719Z,11.83
2018-12-12T09:18:13.771Z,11.80
2018-12-12T09:20:42.935Z,11.90
2018-12-12T09:23:12.063Z,12.87
2018-12-12T09:25:41.635Z,12.73
2018-12-12T09:28:10.853Z,10.67
2018-12-12T09:30:40.035Z,12.23
2018-12-12T09:33:09.168Z,10.30
2018-12-12T09:35:38.395Z,10.70
2018-12-12T09:38:07.634Z,10.60
2018-12-12T09:40:37.069Z,10.93
2018-12-12T09:43:06.203Z,12.07
2018-12-12T09:45:35.358Z,11.47
2018-12-12T09:48:04.567Z,12.57
2018-12-12T09:50:33.674Z,11.27
2018-12-12T09:53:02.863Z,10.47
2018-12-12T09:55:32.075Z,9.37
2018-12-12T09:58:01.878Z,11.50
2018-12-12T10:00:30.965Z,10.83
2018-12-12T10:03:00.101Z,12.63
2018-12-12T10:05:29.183Z,10.40
2018-12-12T10:07:58.322Z,12.10
2018-12-12T10:10:27.429Z,9.00
2018-12-12T10:12:56.502Z,12.80
2018-12-12T10:15:25.763Z,12.87
2018-12-12T10:17:54.911Z,11.20
2018-12-12T10:20:24.143Z,11.83
2018-12-12T10:22:53.214Z,8.90
2018-12-12T10:25:22.263Z,11.80
2018-12-12T10:27:51.280Z,11.37
2018-12-12T10:30:20.373Z,11.37
2018-12-12T10:32:49.399Z,10.07
2018-12-12T10:35:18.519Z,11.90
2018-12-12T10:37:47.576Z,12.07
2018-12-12T10:40:16.662Z,11.00
2018-12-12T10:42:45.656Z,9.20
2018-12-12T10:45:14.735Z,11.67
2018-12-12T10:47:43.763Z,11.17
2018-12-12T10:50:12.883Z,9.33
2018-12-12T10:52:45.145Z,11.47
2018-12-12T10:55:14.238Z,10.87
2018-12-12T10:57:43.297Z,10.90
2018-12-12T11:00:13.054Z,8.57
2018-12-12T11:02:47.575Z,9.33
2018-12-12T11:05:17.003Z,10.63
2018-12-12T11:07:46.096Z,8.83
2018-12-12T11:10:15.235Z,10.00
2018-12-12T11:12:51.844Z,9.47
2018-12-12T11:15:20.963Z,9.90
2018-12-12T11:17:49.983Z,10.50
2018-12-12T11:20:19.035Z,10.07
2018-12-12T11:22:48.135Z,10.00
2018-12-12T11:25:17.175Z,8.93
2018-12-12T11:27:46.325Z,9.57
2018-12-12T11:30:15.387Z,8.83
2018-12-12T11:32:44.550Z,11.70
2018-12-12T11:35:13.835Z,10.70
2018-12-12T11:37:42.940Z,9.60
2018-12-12T11:40:12.014Z,11.13
2018-12-12T11:42:42.167Z,11.40
2018-12-12T11:45:11.235Z,11.50
2018-12-12T11:47:40.375Z,10.30
2018-12-12T11:50:09.480Z,10.50
2018-12-12T11:52:38.615Z,8.70
2018-12-12T11:55:07.675Z,9.90
2018-12-12T11:57:36.915Z,8.90
2018-12-12T12:00:06.375Z,9.30
2018-12-12T12:02:35.805Z,10.20
2018-12-12T12:05:05.153Z,10.00
2018-12-12T12:07:37.370Z,9.20
2018-12-12T12:10:09.024Z,11.07
2018-12-12T12:12:45.863Z,10.20
2018-12-12T12:15:14.963Z,11.33
2018-12-12T12:17:44.030Z,10.10
2018-12-12T12:20:13.125Z,9.53
2018-12-12T12:22:42.331Z,10.70
2018-12-12T12:25:11.384Z,10.20
2018-12-12T12:27:40.483Z,9.53
2018-12-12T12:30:09.872Z,9.57
2018-12-12T12:33:22.597Z,9.00
2018-12-12T12:35:51.695Z,10.33
2018-12-12T12:38:20.805Z,9.97
2018-12-12T12:40:49.837Z,8.60
2018-12-12T12:43:19.035Z,8.30
2018-12-12T12:45:48.226Z,7.20
2018-12-12T12:48:17.779Z,7.57
2018-12-12T12:50:46.795Z,7.80
2018-12-12T12:53:16.019Z,7.53
2018-12-12T12:55:58.498Z,7.53
2018-12-12T12:58:40.195Z,8.73
2018-12-12T13:01:16.907Z,7.87
2018-12-12T13:03:49.964Z,7.53
2018-12-12T13:06:19.177Z,7.47
2018-12-12T13:08:51.936Z,6.60
2018-12-12T13:11:20.976Z,7.60
2018-12-12T13:13:50.292Z,7.70
2018-12-12T13:16:19.303Z,8.43
2018-12-12T13:18:48.399Z,9.23
2018-12-12T13:21:17.535Z,8.33
2018-12-12T13:23:50.095Z,7.80
2018-12-12T13:26:22.676Z,8.87
2018-12-12T13:28:55.595Z,8.17
2018-12-12T13:31:32.258Z,9.93
2018-12-12T13:34:01.664Z,9.70
2018-12-12T13:36:30.720Z,10.10
2018-12-12T13:39:24.002Z,10.43
2018-12-12T13:41:53.179Z,9.00
2018-12-12T13:44:22.227Z,9.47
2018-12-12T13:46:51.227Z,9.00
2018-12-12T13:49:20.403Z,8.90
2018-12-12T13:51:58.819Z,8.70
2018-12-12T13:54:39.067Z,11.07
2018-12-12T13:57:08.106Z,8.20
2018-12-12T13:59:48.303Z,10.40
2018-12-12T14:02:17.331Z,10.77
2018-12-12T14:04:53.699Z,10.57
2018-12-12T14:07:22.673Z,9.13
2018-12-12T14:09:51.654Z,7.87
2018-12-12T14:12:20.588Z,7.93
2018-12-12T14:14:50.741Z,6.20
2018-12-12T14:17:19.899Z,5.77
2018-12-12T14:19:48.978Z,6.00
2018-12-12T14:22:18.019Z,5.10
2018-12-12T14:24:47.179Z,3.37
2018-12-12T14:27:16.187Z,4.20
2018-12-12T14:29:45.201Z,4.80
2018-12-12T14:32:14.751Z,4.00
2018-12-12T14:34:43.803Z,4.33
2018-12-12T14:37:12.923Z,4.50
2018-12-12T14:39:41.891Z,5.37
2018-12-12T14:42:10.899Z,5.40
2018-12-12T14:44:39.899Z,6.23
2018-12-12T14:47:09.203Z,6.20
2018-12-12T14:49:38.240Z,6.90
2018-12-12T14:52:07.339Z,6.13
2018-12-12T14:54:36.398Z,6.27
2018-12-12T14:57:05.507Z,7.20
2018-12-12T14:59:34.549Z,7.77
2018-12-12T15:02:03.647Z,6.40
2018-12-12T15:04:35.864Z,8.77
2018-12-12T15:07:04.256Z,7.77
2018-12-12T15:09:53.883Z,8.00
2018-12-12T15:12:26.789Z,7.07
2018-12-12T15:15:03.387Z,7.27
2018-12-12T15:17:32.509Z,9.77
2018-12-12T15:20:01.567Z,9.53
2018-12-12T15:22:30.780Z,9.13
2018-12-12T15:25:10.051Z,9.13
2018-12-12T15:27:46.732Z,7.27
2018-12-12T15:30:20.615Z,8.80
2018-12-12T15:32:53.651Z,9.07
2018-12-12T15:35:35.774Z,8.90
2018-12-12T15:38:08.075Z,7.83
2018-12-12T15:40:37.175Z,7.87
2018-12-12T15:43:06.216Z,8.67
2018-12-12T15:45:42.735Z,8.77
2018-12-12T15:48:52.161Z,8.50
2018-12-12T15:51:49.660Z,8.37
2018-12-12T15:54:46.471Z,7.73
2018-12-12T15:57:19.615Z,9.00
2018-12-12T15:59:48.719Z,8.57
2018-12-12T16:02:21.163Z,9.77
2018-12-12T16:04:51.307Z,7.97
2018-12-12T16:07:21.379Z,10.63
2018-12-12T16:10:03.803Z,10.07
2018-12-12T16:12:33.232Z,11.10
2018-12-12T16:15:02.258Z,11.00
2018-12-12T16:17:31.434Z,9.60
2018-12-12T16:20:00.778Z,12.23
2018-12-12T16:22:31.390Z,10.80
2018-12-12T16:25:00.570Z,11.60
2018-12-12T16:27:29.733Z,10.87
2018-12-12T16:29:58.766Z,12.27
2018-12-12T16:32:27.871Z,11.87
2018-12-12T16:34:57.011Z,11.03
2018-12-12T16:37:26.051Z,11.13
2018-12-12T16:39:55.212Z,11.10
2018-12-12T16:42:24.317Z,10.00
2018-12-12T16:44:53.656Z,11.23
2018-12-12T16:47:23.202Z,10.30
2018-12-12T16:49:52.654Z,9.37
2018-12-12T16:52:21.927Z,10.43
2018-12-12T16:54:55.007Z,12.97
2018-12-12T16:57:34.639Z,10.87
2018-12-12T17:00:04.932Z,9.37
2018-12-12T17:02:34.293Z,11.33
2018-12-12T17:05:03.433Z,9.70
2018-12-12T17:07:32.675Z,10.70
2018-12-12T17:10:01.902Z,10.97
2018-12-12T17:12:31.108Z,9.47
2018-12-12T17:15:03.879Z,10.80
2018-12-12T17:17:33.188Z,10.30
2018-12-12T17:20:02.735Z,10.90
2018-12-12T17:22:32.019Z,9.33
2018-12-12T17:25:01.206Z,11.03
2018-12-12T17:27:38.430Z,10.60
2018-12-12T17:30:09.175Z,12.00
2018-12-12T17:32:38.546Z,12.23
2018-12-12T17:35:15.441Z,9.23
2018-12-12T17:38:05.351Z,8.50
2018-12-12T17:40:42.826Z,11.00
2018-12-12T17:43:12.323Z,9.17
2018-12-12T17:45:58.243Z,10.77
2018-12-12T17:48:34.905Z,9.87
2018-12-12T17:51:07.566Z,9.47
2018-12-12T17:53:45.566Z,9.07
2018-12-12T17:56:22.553Z,9.67
2018-12-12T17:58:52.079Z,11.50
2018-12-12T18:01:25.069Z,10.20
2018-12-12T18:04:02.067Z,9.57
2018-12-12T18:06:48.071Z,9.57
2018-12-12T18:09:21.490Z,9.97
2018-12-12T18:11:58.540Z,9.70
2018-12-12T18:14:36.130Z,9.47
2018-12-12T18:17:09.083Z,10.00
2018-12-12T18:19:42.369Z,10.87
2018-12-12T18:22:19.498Z,10.27
2018-12-12T18:24:52.910Z,11.20
2018-12-12T18:27:40.032Z,12.03
2018-12-12T18:30:11.533Z,9.57
2018-12-12T18:32:48.519Z,9.27
2018-12-12T18:35:29.731Z,9.77
2018-12-12T18:38:07.011Z,11.07
2018-12-12T18:40:44.586Z,14.37
2018-12-12T18:43:22.000Z,16.53
2018-12-12T18:45:55.528Z,17.20
2018-12-12T18:48:26.559Z,15.10
2018-12-12T18:51:03.459Z,15.40
2018-12-12T18:53:36.407Z,11.90
2018-12-12T18:56:09.073Z,12.17
2018-12-12T18:58:46.071Z,12.23
2018-12-12T19:01:20.538Z,12.23
2018-12-12T19:04:12.174Z,12.43
2018-12-12T19:06:44.934Z,12.20
2018-12-12T19:09:22.658Z,11.70
2018-12-12T19:11:56.098Z,11.60
2018-12-12T19:14:28.833Z,11.40
2018-12-12T19:17:02.448Z,12.83
2018-12-12T19:19:35.343Z,10.80
2018-12-12T19:22:12.102Z,12.30
2018-12-12T19:24:44.993Z,13.60
2018-12-12T19:27:18.352Z,14.57
2018-12-12T19:29:55.434Z,13.40
2018-12-12T19:32:33.331Z,13.80
2018-12-12T19:35:07.475Z,11.00
2018-12-12T19:37:40.648Z,14.03
2018-12-12T19:40:14.093Z,11.70
2018-12-12T19:42:47.054Z,11.30
2018-12-12T19:45:23.891Z,9.50
2018-12-12T19:47:56.631Z,11.80
2018-12-12T19:50:29.570Z,11.80
2018-12-12T19:53:06.593Z,10.47
2018-12-12T19:55:39.466Z,12.30
2018-12-12T19:58:16.212Z,12.70
2018-12-12T20:00:49.099Z,10.33
2018-12-12T20:03:27.617Z,10.80
2018-12-12T20:06:14.366Z,12.17
2018-12-12T20:08:45.918Z,11.33
2018-12-12T20:11:15.470Z,12.53
2018-12-12T20:13:48.399Z,10.87
2018-12-12T20:16:48.223Z,13.77
2018-12-12T20:19:19.831Z,13.37
2018-12-12T20:22:17.080Z,11.00
2018-12-12T20:25:27.574Z,14.33
2018-12-12T20:28:46.416Z,16.00
2018-12-12T20:34:42.589Z,13.87
2018-12-12T20:37:12.165Z,11.43
2018-12-12T20:39:56.639Z,12.70
2018-12-12T20:42:26.284Z,13.03
2018-12-12T20:49:01.912Z,12.80
2018-12-12T20:51:36.412Z,12.43
2018-12-12T20:54:13.390Z,12.17
2018-12-12T20:56:46.243Z,13.90
2018-12-12T20:59:16.503Z,15.37
2018-12-12T21:01:53.829Z,14.13
2018-12-12T21:04:26.649Z,15.67
2018-12-12T21:06:59.635Z,15.60
2018-12-12T21:09:41.656Z,15.37
2018-12-12T21:12:19.160Z,15.00
2018-12-12T21:14:52.016Z,16.37
2018-12-12T21:17:22.035Z,15.47
2018-12-12T21:19:59.624Z,18.00
2018-12-12T21:22:32.407Z,16.20
2018-12-12T21:25:09.110Z,19.23
2018-12-12T21:27:46.939Z,15.77
2018-12-12T21:30:23.743Z,20.80
2018-12-12T21:32:57.315Z,18.23
2018-12-12T21:35:35.684Z,20.53
2018-12-12T21:38:12.933Z,20.47
2018-12-12T21:40:42.411Z,21.17
2018-12-12T21:43:19.455Z,22.47
2018-12-12T21:45:52.538Z,17.93
2018-12-12T21:48:25.212Z,19.90
2018-12-12T21:51:02.138Z,21.40
2018-12-12T21:53:38.975Z,21.63
2018-12-12T21:56:12.039Z,22.57
2018-12-12T21:58:53.855Z,19.10
2018-12-12T22:01:30.882Z,22.13
2018-12-12T22:04:07.667Z,22.40
2018-12-12T22:06:40.486Z,26.10
2018-12-12T22:12:41.507Z,23.53
2018-12-12T22:15:14.145Z,25.80
2018-12-12T22:17:45.118Z,24.23
2018-12-12T22:20:14.442Z,24.13
2018-12-12T22:22:58.486Z,18.23
2018-12-12T22:26:06.164Z,21.10
2018-12-12T22:28:35.325Z,24.67
2018-12-12T22:31:04.339Z,23.60
2018-12-12T22:33:33.495Z,23.70
2018-12-12T22:36:02.575Z,22.97
2018-12-12T22:38:40.804Z,24.30
2018-12-12T22:41:10.191Z,25.63
2018-12-12T22:43:39.633Z,22.33
2018-12-12T22:46:08.591Z,21.33
2018-12-12T22:48:45.497Z,25.33
2018-12-12T22:51:23.347Z,24.23
2018-12-12T22:56:21.722Z,23.17
2018-12-12T22:58:50.733Z,24.40
2018-12-12T23:01:27.271Z,26.80
2018-12-12T23:03:58.087Z,23.50
2018-12-12T23:06:29.003Z,23.73
2018-12-12T23:08:58.060Z,24.47
2018-12-12T23:11:27.015Z,25.50
2018-12-12T23:13:56.302Z,24.57
2018-12-12T23:16:28.702Z,25.43
2018-12-12T23:19:01.466Z,22.27
2018-12-12T23:22:11.586Z,22.90
2018-12-12T23:24:43.777Z,21.37
2018-12-12T23:27:13.347Z,22.90
2018-12-12T23:30:25.583Z,21.50
2018-12-12T23:33:01.951Z,22.20
2018-12-12T23:35:30.929Z,21.80
2018-12-12T23:37:59.954Z,20.70
2018-12-12T23:40:30.722Z,22.10
2018-12-12T23:43:03.874Z,23.27
2018-12-12T23:45:34.515Z,23.07
2018-12-12T23:48:03.535Z,21.97
2018-12-12T23:50:32.663Z,20.07
2018-12-12T23:53:05.643Z,23.00
2018-12-12T23:55:38.410Z,20.60
2018-12-12T23:58:10.993Z,22.63
